sensor_id;sensor_type;location;lat;lon;timestamp;pressure;altitude;pressure_sealevel;temperature;humidity
32083;BME280;18597;48.328;7.932;2023-04-08T00:00:50;99892.84;;;6.24;100.00
32083;BME280;18597;48.328;7.932;2023-04-08T00:03:17;99890.00;;;6.27;100.00
32083;BME280;18597;48.328;7.932;2023-04-08T00:05:42;99895.84;;;6.32;100.00
32083;BME280;18597;48.328;7.932;2023-04-08T00:08:08;99886.94;;;6.33;100.00
32083;BME280;18597;48.328;7.932;2023-04-08T00:10:34;99885.78;;;6.52;100.00
32083;BME280;18597;48.328;7.932;2023-04-08T00:13:00;99895.69;;;6.35;100.00
32083;BME280;18597;48.328;7.932;2023-04-08T00:15:26;99882.31;;;6.37;100.00
32083;BME280;18597;48.328;7.932;2023-04-08T00:17:52;99885.09;;;6.48;100.00
32083;BME280;18597;48.328;7.932;2023-04-08T00:20:21;99885.06;;;6.35;100.00
32083;BME280;18597;48.328;7.932;2023-04-08T00:22:47;99878.47;;;6.41;100.00
32083;BME280;18597;48.328;7.932;2023-04-08T00:25:12;99882.41;;;6.35;100.00
32083;BME280;18597;48.328;7.932;2023-04-08T00:27:38;99885.44;;;6.29;100.00
32083;BME280;18597;48.328;7.932;2023-04-08T00:30:05;99879.09;;;6.32;100.00
32083;BME280;18597;48.328;7.932;2023-04-08T00:32:31;99882.44;;;6.48;100.00
32083;BME280;18597;48.328;7.932;2023-04-08T00:34:57;99884.69;;;6.27;100.00
32083;BME280;18597;48.328;7.932;2023-04-08T00:37:23;99876.66;;;6.15;100.00
32083;BME280;18597;48.328;7.932;2023-04-08T00:39:50;99882.06;;;6.27;100.00
32083;BME280;18597;48.328;7.932;2023-04-08T00:42:18;99877.13;;;6.21;100.00
32083;BME280;18597;48.328;7.932;2023-04-08T00:44:45;99885.38;;;6.17;100.00
32083;BME280;18597;48.328;7.932;2023-04-08T00:47:12;99881.47;;;6.22;100.00
32083;BME280;18597;48.328;7.932;2023-04-08T00:49:38;99880.91;;;6.17;100.00
32083;BME280;18597;48.328;7.932;2023-04-08T00:52:05;99888.59;;;6.22;100.00
32083;BME280;18597;48.328;7.932;2023-04-08T00:54:30;99887.16;;;6.16;100.00
32083;BME280;18597;48.328;7.932;2023-04-08T00:56:57;99883.66;;;6.16;100.00
32083;BME280;18597;48.328;7.932;2023-04-08T00:59:25;99884.72;;;5.99;100.00
32083;BME280;18597;48.328;7.932;2023-04-08T01:05:01;99890.31;;;5.94;100.00
32083;BME280;18597;48.328;7.932;2023-04-08T01:07:34;99888.72;;;6.06;100.00
32083;BME280;18597;48.328;7.932;2023-04-08T01:10:25;99895.22;;;6.15;100.00
32083;BME280;18597;48.328;7.932;2023-04-08T01:12:56;99895.13;;;6.16;100.00
32083;BME280;18597;48.328;7.932;2023-04-08T01:15:26;99896.25;;;6.12;100.00
32083;BME280;18597;48.328;7.932;2023-04-08T01:17:54;99894.56;;;6.11;100.00
32083;BME280;18597;48.328;7.932;2023-04-08T01:20:24;99898.38;;;6.07;100.00
32083;BME280;18597;48.328;7.932;2023-04-08T01:25:37;99913.31;;;6.22;100.00
32083;BME280;18597;48.328;7.932;2023-04-08T01:28:09;99910.47;;;6.25;100.00
32083;BME280;18597;48.328;7.932;2023-04-08T01:30:39;99905.16;;;6.25;100.00
32083;BME280;18597;48.328;7.932;2023-04-08T01:33:06;99910.19;;;6.57;100.00
32083;BME280;18597;48.328;7.932;2023-04-08T01:35:32;99900.88;;;6.64;100.00
32083;BME280;18597;48.328;7.932;2023-04-08T01:37:59;99898.84;;;6.55;100.00
32083;BME280;18597;48.328;7.932;2023-04-08T01:40:27;99901.53;;;6.40;100.00
32083;BME280;18597;48.328;7.932;2023-04-08T01:42:55;99897.00;;;6.43;100.00
32083;BME280;18597;48.328;7.932;2023-04-08T01:45:23;99894.50;;;6.39;100.00
32083;BME280;18597;48.328;7.932;2023-04-08T01:47:49;99901.25;;;6.45;100.00
32083;BME280;18597;48.328;7.932;2023-04-08T01:50:17;99899.06;;;6.37;100.00
32083;BME280;18597;48.328;7.932;2023-04-08T01:52:46;99904.47;;;6.50;100.00
32083;BME280;18597;48.328;7.932;2023-04-08T01:55:13;99899.72;;;6.41;100.00
32083;BME280;18597;48.328;7.932;2023-04-08T01:57:41;99893.66;;;6.39;100.00
32083;BME280;18597;48.328;7.932;2023-04-08T02:00:11;99900.41;;;6.30;100.00
32083;BME280;18597;48.328;7.932;2023-04-08T02:02:39;99896.06;;;6.29;100.00
32083;BME280;18597;48.328;7.932;2023-04-08T02:05:07;99899.47;;;6.31;100.00
32083;BME280;18597;48.328;7.932;2023-04-08T02:07:33;99899.06;;;6.37;100.00
32083;BME280;18597;48.328;7.932;2023-04-08T02:09:59;99903.31;;;6.40;100.00
32083;BME280;18597;48.328;7.932;2023-04-08T02:12:26;99906.34;;;6.48;100.00
32083;BME280;18597;48.328;7.932;2023-04-08T02:14:53;99903.56;;;6.50;100.00
32083;BME280;18597;48.328;7.932;2023-04-08T02:17:46;99904.00;;;6.44;100.00
32083;BME280;18597;48.328;7.932;2023-04-08T02:20:25;99900.78;;;6.38;100.00
32083;BME280;18597;48.328;7.932;2023-04-08T02:23:13;99901.53;;;6.40;100.00
32083;BME280;18597;48.328;7.932;2023-04-08T02:25:40;99897.91;;;6.42;100.00
32083;BME280;18597;48.328;7.932;2023-04-08T02:28:10;99907.13;;;6.36;100.00
32083;BME280;18597;48.328;7.932;2023-04-08T02:30:42;99904.38;;;6.37;100.00
32083;BME280;18597;48.328;7.932;2023-04-08T02:33:09;99902.00;;;6.33;100.00
32083;BME280;18597;48.328;7.932;2023-04-08T02:35:36;99896.03;;;6.44;100.00
32083;BME280;18597;48.328;7.932;2023-04-08T02:38:04;99898.59;;;6.45;100.00
32083;BME280;18597;48.328;7.932;2023-04-08T02:40:32;99901.53;;;6.26;100.00
32083;BME280;18597;48.328;7.932;2023-04-08T02:42:58;99903.53;;;6.37;100.00
32083;BME280;18597;48.328;7.932;2023-04-08T02:45:33;99902.31;;;6.28;100.00
32083;BME280;18597;48.328;7.932;2023-04-08T02:48:02;99899.22;;;6.49;100.00
32083;BME280;18597;48.328;7.932;2023-04-08T02:50:28;99899.06;;;6.37;100.00
32083;BME280;18597;48.328;7.932;2023-04-08T02:52:54;99898.88;;;6.40;100.00
32083;BME280;18597;48.328;7.932;2023-04-08T02:55:20;99899.66;;;6.43;100.00
32083;BME280;18597;48.328;7.932;2023-04-08T02:57:47;99902.19;;;6.44;100.00
32083;BME280;18597;48.328;7.932;2023-04-08T03:00:13;99900.00;;;6.51;100.00
32083;BME280;18597;48.328;7.932;2023-04-08T03:02:39;99900.97;;;6.35;100.00
32083;BME280;18597;48.328;7.932;2023-04-08T03:05:06;99900.03;;;6.63;100.00
32083;BME280;18597;48.328;7.932;2023-04-08T03:07:32;99890.75;;;6.56;100.00
32083;BME280;18597;48.328;7.932;2023-04-08T03:09:58;99893.28;;;6.72;100.00
32083;BME280;18597;48.328;7.932;2023-04-08T03:12:24;99892.00;;;6.65;100.00
32083;BME280;18597;48.328;7.932;2023-04-08T03:14:52;99893.41;;;6.56;100.00
32083;BME280;18597;48.328;7.932;2023-04-08T03:17:18;99900.44;;;6.57;100.00
32083;BME280;18597;48.328;7.932;2023-04-08T03:19:44;99901.19;;;6.59;100.00
32083;BME280;18597;48.328;7.932;2023-04-08T03:22:11;99907.97;;;6.51;100.00
32083;BME280;18597;48.328;7.932;2023-04-08T03:24:37;99900.56;;;6.42;100.00
32083;BME280;18597;48.328;7.932;2023-04-08T03:27:03;99910.91;;;6.32;100.00
32083;BME280;18597;48.328;7.932;2023-04-08T03:29:29;99907.34;;;6.19;100.00
32083;BME280;18597;48.328;7.932;2023-04-08T03:31:55;99907.91;;;6.24;100.00
32083;BME280;18597;48.328;7.932;2023-04-08T03:34:21;99911.88;;;6.31;100.00
32083;BME280;18597;48.328;7.932;2023-04-08T03:36:46;99917.66;;;6.37;100.00
32083;BME280;18597;48.328;7.932;2023-04-08T03:39:12;99907.59;;;6.43;100.00
32083;BME280;18597;48.328;7.932;2023-04-08T03:41:38;99906.81;;;6.40;100.00
32083;BME280;18597;48.328;7.932;2023-04-08T03:44:04;99911.50;;;6.37;100.00
32083;BME280;18597;48.328;7.932;2023-04-08T03:46:30;99909.72;;;6.23;100.00
32083;BME280;18597;48.328;7.932;2023-04-08T03:48:56;99906.09;;;6.24;100.00
32083;BME280;18597;48.328;7.932;2023-04-08T03:51:21;99900.91;;;6.23;100.00
32083;BME280;18597;48.328;7.932;2023-04-08T03:53:47;99904.13;;;6.14;100.00
32083;BME280;18597;48.328;7.932;2023-04-08T03:56:14;99901.59;;;5.98;100.00
32083;BME280;18597;48.328;7.932;2023-04-08T03:58:40;99908.00;;;5.79;100.00
32083;BME280;18597;48.328;7.932;2023-04-08T04:01:06;99904.38;;;5.52;100.00
32083;BME280;18597;48.328;7.932;2023-04-08T04:03:32;99898.31;;;5.50;100.00
32083;BME280;18597;48.328;7.932;2023-04-08T04:05:58;99898.19;;;5.51;100.00
32083;BME280;18597;48.328;7.932;2023-04-08T04:08:24;99905.81;;;5.27;100.00
32083;BME280;18597;48.328;7.932;2023-04-08T04:10:49;99907.72;;;5.25;100.00
32083;BME280;18597;48.328;7.932;2023-04-08T04:13:16;99910.78;;;5.04;100.00
32083;BME280;18597;48.328;7.932;2023-04-08T04:15:42;99908.56;;;4.96;100.00
32083;BME280;18597;48.328;7.932;2023-04-08T04:18:08;99911.06;;;4.83;100.00
32083;BME280;18597;48.328;7.932;2023-04-08T04:20:33;99910.22;;;4.83;100.00
32083;BME280;18597;48.328;7.932;2023-04-08T04:23:00;99909.22;;;4.69;100.00
32083;BME280;18597;48.328;7.932;2023-04-08T04:25:25;99911.69;;;4.72;100.00
32083;BME280;18597;48.328;7.932;2023-04-08T04:27:51;99910.44;;;4.64;100.00
32083;BME280;18597;48.328;7.932;2023-04-08T04:30:17;99910.53;;;4.62;100.00
32083;BME280;18597;48.328;7.932;2023-04-08T04:32:44;99908.03;;;4.59;100.00
32083;BME280;18597;48.328;7.932;2023-04-08T04:35:11;99910.66;;;4.59;100.00
32083;BME280;18597;48.328;7.932;2023-04-08T04:37:38;99918.34;;;4.80;100.00
32083;BME280;18597;48.328;7.932;2023-04-08T04:40:05;99916.56;;;4.80;100.00
32083;BME280;18597;48.328;7.932;2023-04-08T04:42:31;99918.34;;;4.80;100.00
32083;BME280;18597;48.328;7.932;2023-04-08T04:44:57;99920.97;;;4.95;100.00
32083;BME280;18597;48.328;7.932;2023-04-08T04:47:24;99935.81;;;4.98;100.00
32083;BME280;18597;48.328;7.932;2023-04-08T04:49:50;99929.41;;;5.02;100.00
32083;BME280;18597;48.328;7.932;2023-04-08T04:52:16;99929.22;;;5.05;100.00
32083;BME280;18597;48.328;7.932;2023-04-08T04:54:42;99940.16;;;5.15;100.00
32083;BME280;18597;48.328;7.932;2023-04-08T04:57:08;99937.13;;;5.21;100.00
32083;BME280;18597;48.328;7.932;2023-04-08T04:59:33;99938.75;;;5.23;100.00
32083;BME280;18597;48.328;7.932;2023-04-08T05:02:00;99941.13;;;5.28;100.00
32083;BME280;18597;48.328;7.932;2023-04-08T05:04:26;99944.34;;;5.63;100.00
32083;BME280;18597;48.328;7.932;2023-04-08T05:06:51;99942.72;;;5.61;100.00
32083;BME280;18597;48.328;7.932;2023-04-08T05:09:17;99945.94;;;5.66;100.00
32083;BME280;18597;48.328;7.932;2023-04-08T05:11:43;99944.34;;;5.77;100.00
32083;BME280;18597;48.328;7.932;2023-04-08T05:14:09;99945.72;;;5.99;100.00
32083;BME280;18597;48.328;7.932;2023-04-08T05:16:35;99946.84;;;5.95;100.00
32083;BME280;18597;48.328;7.932;2023-04-08T05:19:01;99950.47;;;6.08;100.00
32083;BME280;18597;48.328;7.932;2023-04-08T05:21:27;99952.53;;;6.03;100.00
32083;BME280;18597;48.328;7.932;2023-04-08T05:23:53;99955.75;;;6.08;100.00
32083;BME280;18597;48.328;7.932;2023-04-08T05:26:19;99953.88;;;6.10;100.00
32083;BME280;18597;48.328;7.932;2023-04-08T05:28:47;99952.75;;;6.14;100.00
32083;BME280;18597;48.328;7.932;2023-04-08T05:31:15;99951.03;;;6.27;100.00
32083;BME280;18597;48.328;7.932;2023-04-08T05:33:41;99952.53;;;6.31;100.00
32083;BME280;18597;48.328;7.932;2023-04-08T05:36:07;99953.84;;;6.38;100.00
32083;BME280;18597;48.328;7.932;2023-04-08T05:38:33;99952.72;;;6.43;100.00
32083;BME280;18597;48.328;7.932;2023-04-08T05:40:59;99960.19;;;6.50;100.00
32083;BME280;18597;48.328;7.932;2023-04-08T05:43:25;99960.47;;;6.60;100.00
32083;BME280;18597;48.328;7.932;2023-04-08T05:45:51;99970.22;;;6.59;100.00
32083;BME280;18597;48.328;7.932;2023-04-08T05:48:17;99972.78;;;6.61;100.00
32083;BME280;18597;48.328;7.932;2023-04-08T05:50:43;99973.81;;;6.73;100.00
32083;BME280;18597;48.328;7.932;2023-04-08T05:53:10;99972.19;;;6.70;100.00
32083;BME280;18597;48.328;7.932;2023-04-08T05:55:36;99979.28;;;6.84;100.00
32083;BME280;18597;48.328;7.932;2023-04-08T05:58:01;99970.41;;;6.98;100.00
32083;BME280;18597;48.328;7.932;2023-04-08T06:00:27;99971.50;;;7.08;100.00
32083;BME280;18597;48.328;7.932;2023-04-08T06:02:53;99974.00;;;7.23;100.00
32083;BME280;18597;48.328;7.932;2023-04-08T06:05:19;99976.69;;;7.36;100.00
32083;BME280;18597;48.328;7.932;2023-04-08T06:07:45;99983.66;;;7.51;100.00
32083;BME280;18597;48.328;7.932;2023-04-08T06:10:11;99977.06;;;7.70;100.00
32083;BME280;18597;48.328;7.932;2023-04-08T06:12:37;99981.25;;;7.74;100.00
32083;BME280;18597;48.328;7.932;2023-04-08T06:15:06;99991.78;;;7.88;100.00
32083;BME280;18597;48.328;7.932;2023-04-08T06:17:32;99993.69;;;7.99;100.00
32083;BME280;18597;48.328;7.932;2023-04-08T06:20:00;99993.19;;;7.94;100.00
32083;BME280;18597;48.328;7.932;2023-04-08T06:22:27;99998.41;;;7.95;100.00
32083;BME280;18597;48.328;7.932;2023-04-08T06:24:53;100002.00;;;7.94;100.00
32083;BME280;18597;48.328;7.932;2023-04-08T06:27:19;99996.88;;;7.91;100.00
32083;BME280;18597;48.328;7.932;2023-04-08T06:29:45;99994.97;;;7.93;100.00
32083;BME280;18597;48.328;7.932;2023-04-08T06:32:12;99994.53;;;7.99;100.00
32083;BME280;18597;48.328;7.932;2023-04-08T06:34:39;100005.50;;;8.07;100.00
32083;BME280;18597;48.328;7.932;2023-04-08T06:37:06;100005.53;;;8.20;100.00
32083;BME280;18597;48.328;7.932;2023-04-08T06:39:33;100006.50;;;8.32;100.00
32083;BME280;18597;48.328;7.932;2023-04-08T06:41:58;100005.00;;;8.41;100.00
32083;BME280;18597;48.328;7.932;2023-04-08T06:44:24;100005.94;;;8.52;100.00
32083;BME280;18597;48.328;7.932;2023-04-08T06:46:50;100006.16;;;8.62;100.00
32083;BME280;18597;48.328;7.932;2023-04-08T06:49:16;100003.97;;;8.80;100.00
32083;BME280;18597;48.328;7.932;2023-04-08T06:51:42;100000.81;;;8.99;100.00
32083;BME280;18597;48.328;7.932;2023-04-08T06:54:08;99993.91;;;9.20;100.00
32083;BME280;18597;48.328;7.932;2023-04-08T06:56:35;99996.09;;;9.50;100.00
32083;BME280;18597;48.328;7.932;2023-04-08T06:59:02;99992.72;;;9.83;100.00
32083;BME280;18597;48.328;7.932;2023-04-08T07:01:29;99999.47;;;10.22;100.00
32083;BME280;18597;48.328;7.932;2023-04-08T07:03:57;100002.41;;;10.53;100.00
32083;BME280;18597;48.328;7.932;2023-04-08T07:06:23;99994.81;;;10.80;99.50
32083;BME280;18597;48.328;7.932;2023-04-08T07:08:49;99996.16;;;10.97;96.49
32083;BME280;18597;48.328;7.932;2023-04-08T07:11:15;100003.44;;;10.95;97.76
32083;BME280;18597;48.328;7.932;2023-04-08T07:13:41;99997.50;;;10.92;95.73
32083;BME280;18597;48.328;7.932;2023-04-08T07:16:07;100002.00;;;10.91;97.87
32083;BME280;18597;48.328;7.932;2023-04-08T07:18:33;99996.88;;;10.99;96.58
32083;BME280;18597;48.328;7.932;2023-04-08T07:20:59;100001.44;;;11.20;96.06
32083;BME280;18597;48.328;7.932;2023-04-08T07:23:26;100005.03;;;11.41;93.09
32083;BME280;18597;48.328;7.932;2023-04-08T07:25:52;100004.13;;;11.52;90.33
32083;BME280;18597;48.328;7.932;2023-04-08T07:28:19;100003.91;;;11.44;89.60
32083;BME280;18597;48.328;7.932;2023-04-08T07:30:45;100014.97;;;11.50;87.83
32083;BME280;18597;48.328;7.932;2023-04-08T07:33:11;100017.81;;;10.83;92.05
32083;BME280;18597;48.328;7.932;2023-04-08T07:35:37;100020.56;;;10.93;94.33
32083;BME280;18597;48.328;7.932;2023-04-08T07:38:03;100020.09;;;10.99;91.43
32083;BME280;18597;48.328;7.932;2023-04-08T07:40:29;100017.06;;;11.35;92.10
32083;BME280;18597;48.328;7.932;2023-04-08T07:42:55;100020.50;;;11.90;85.93
32083;BME280;18597;48.328;7.932;2023-04-08T07:45:21;100026.31;;;12.16;84.89
32083;BME280;18597;48.328;7.932;2023-04-08T07:47:47;100020.69;;;12.40;82.40
32083;BME280;18597;48.328;7.932;2023-04-08T07:50:13;100025.47;;;12.77;80.54
32083;BME280;18597;48.328;7.932;2023-04-08T07:52:39;100012.38;;;13.24;76.86
32083;BME280;18597;48.328;7.932;2023-04-08T07:55:05;100012.81;;;13.39;72.99
32083;BME280;18597;48.328;7.932;2023-04-08T07:57:31;100004.72;;;13.97;70.20
32083;BME280;18597;48.328;7.932;2023-04-08T07:59:57;100018.91;;;14.55;63.22
32083;BME280;18597;48.328;7.932;2023-04-08T08:02:23;100020.47;;;14.85;60.21
32083;BME280;18597;48.328;7.932;2023-04-08T08:04:49;100015.34;;;15.19;58.13
32083;BME280;18597;48.328;7.932;2023-04-08T08:07:15;100017.66;;;15.32;58.25
32083;BME280;18597;48.328;7.932;2023-04-08T08:09:41;100012.56;;;16.00;56.79
32083;BME280;18597;48.328;7.932;2023-04-08T08:12:07;100014.78;;;16.83;53.95
32083;BME280;18597;48.328;7.932;2023-04-08T08:14:33;100012.91;;;16.75;53.83
32083;BME280;18597;48.328;7.932;2023-04-08T08:16:59;100020.50;;;16.54;54.12
32083;BME280;18597;48.328;7.932;2023-04-08T08:19:26;100026.25;;;16.25;54.71
32083;BME280;18597;48.328;7.932;2023-04-08T08:21:51;100027.72;;;16.19;55.94
32083;BME280;18597;48.328;7.932;2023-04-08T08:24:17;100025.09;;;16.09;56.42
32083;BME280;18597;48.328;7.932;2023-04-08T08:26:44;100020.69;;;15.82;57.69
32083;BME280;18597;48.328;7.932;2023-04-08T08:29:11;100020.16;;;15.61;59.30
32083;BME280;18597;48.328;7.932;2023-04-08T08:31:37;100019.94;;;15.72;59.35
32083;BME280;18597;48.328;7.932;2023-04-08T08:34:03;100030.38;;;15.93;58.84
32083;BME280;18597;48.328;7.932;2023-04-08T08:36:29;100023.72;;;15.79;58.75
32083;BME280;18597;48.328;7.932;2023-04-08T08:38:55;100029.91;;;15.44;60.47
32083;BME280;18597;48.328;7.932;2023-04-08T08:41:21;100029.75;;;15.01;62.93
32083;BME280;18597;48.328;7.932;2023-04-08T08:43:47;100029.72;;;14.73;65.52
32083;BME280;18597;48.328;7.932;2023-04-08T08:46:16;100032.66;;;14.33;67.57
32083;BME280;18597;48.328;7.932;2023-04-08T08:48:43;100034.53;;;14.23;69.12
32083;BME280;18597;48.328;7.932;2023-04-08T08:51:11;100031.00;;;14.22;69.64
32083;BME280;18597;48.328;7.932;2023-04-08T08:53:39;100034.53;;;14.23;69.48
32083;BME280;18597;48.328;7.932;2023-04-08T08:56:09;100032.66;;;14.33;69.66
32083;BME280;18597;48.328;7.932;2023-04-08T08:58:35;100047.09;;;14.32;70.30
32083;BME280;18597;48.328;7.932;2023-04-08T09:01:01;100034.53;;;14.23;69.43
32083;BME280;18597;48.328;7.932;2023-04-08T09:03:27;100042.75;;;14.11;70.37
32083;BME280;18597;48.328;7.932;2023-04-08T09:06:00;100039.22;;;14.01;71.11
32083;BME280;18597;48.328;7.932;2023-04-08T09:08:31;100044.59;;;14.01;71.07
32083;BME280;18597;48.328;7.932;2023-04-08T09:11:16;100038.09;;;14.13;70.11
32083;BME280;18597;48.328;7.932;2023-04-08T09:13:44;100037.88;;;14.34;69.28
32083;BME280;18597;48.328;7.932;2023-04-08T09:16:13;100052.91;;;14.37;68.07
32083;BME280;18597;48.328;7.932;2023-04-08T09:18:41;100049.22;;;14.48;67.63
32083;BME280;18597;48.328;7.932;2023-04-08T09:21:10;100051.63;;;14.31;66.51
32083;BME280;18597;48.328;7.932;2023-04-08T09:23:51;100053.75;;;14.28;68.94
32083;BME280;18597;48.328;7.932;2023-04-08T09:26:21;100055.97;;;14.42;69.56
32083;BME280;18597;48.328;7.932;2023-04-08T09:29:08;100047.22;;;14.40;68.45
32083;BME280;18597;48.328;7.932;2023-04-08T09:31:37;100057.44;;;14.46;67.80
32083;BME280;18597;48.328;7.932;2023-04-08T09:34:12;100055.28;;;14.40;65.12
32083;BME280;18597;48.328;7.932;2023-04-08T09:36:39;100063.09;;;14.24;65.51
32083;BME280;18597;48.328;7.932;2023-04-08T09:39:06;100065.09;;;14.22;65.67
32083;BME280;18597;48.328;7.932;2023-04-08T09:41:34;100059.44;;;14.05;62.08
32083;BME280;18597;48.328;7.932;2023-04-08T09:44:05;100059.88;;;13.62;63.39
32083;BME280;18597;48.328;7.932;2023-04-08T09:49:45;100054.75;;;13.30;65.62
32083;BME280;18597;48.328;7.932;2023-04-08T09:52:23;100064.50;;;13.31;65.12
32083;BME280;18597;48.328;7.932;2023-04-08T09:55:01;100054.78;;;13.49;65.85
32083;BME280;18597;48.328;7.932;2023-04-08T09:57:54;100066.09;;;13.82;62.70
32083;BME280;18597;48.328;7.932;2023-04-08T10:00:31;100066.34;;;14.18;61.47
32083;BME280;18597;48.328;7.932;2023-04-08T10:05:58;100073.97;;;14.51;57.76
32083;BME280;18597;48.328;7.932;2023-04-08T10:08:26;100071.19;;;15.08;55.88
32083;BME280;18597;48.328;7.932;2023-04-08T10:10:53;100066.94;;;15.33;54.58
32083;BME280;18597;48.328;7.932;2023-04-08T10:13:21;100070.19;;;15.81;51.92
32083;BME280;18597;48.328;7.932;2023-04-08T10:15:47;100068.75;;;15.87;51.51
32083;BME280;18597;48.328;7.932;2023-04-08T10:18:28;100069.66;;;15.96;51.44
32083;BME280;18597;48.328;7.932;2023-04-08T10:20:55;100074.06;;;16.23;50.69
32083;BME280;18597;48.328;7.932;2023-04-08T10:23:53;100067.59;;;16.16;50.75
32083;BME280;18597;48.328;7.932;2023-04-08T10:26:42;100067.47;;;15.99;50.97
32083;BME280;18597;48.328;7.932;2023-04-08T10:32:02;100064.31;;;15.50;51.94
32083;BME280;18597;48.328;7.932;2023-04-08T10:34:28;100057.22;;;15.49;53.00
32083;BME280;18597;48.328;7.932;2023-04-08T10:36:56;100059.25;;;15.83;52.72
32083;BME280;18597;48.328;7.932;2023-04-08T10:39:24;100053.53;;;15.86;50.85
32083;BME280;18597;48.328;7.932;2023-04-08T10:41:51;100048.50;;;16.09;51.60
32083;BME280;18597;48.328;7.932;2023-04-08T10:44:21;100053.88;;;16.53;49.73
32083;BME280;18597;48.328;7.932;2023-04-08T10:46:49;100048.25;;;16.98;49.33
32083;BME280;18597;48.328;7.932;2023-04-08T10:49:16;100045.00;;;17.37;48.92
32083;BME280;18597;48.328;7.932;2023-04-08T10:51:43;100049.13;;;17.65;47.94
32083;BME280;18597;48.328;7.932;2023-04-08T10:54:17;100041.25;;;17.88;46.71
32083;BME280;18597;48.328;7.932;2023-04-08T10:56:47;100039.56;;;18.12;46.17
32083;BME280;18597;48.328;7.932;2023-04-08T10:59:16;100042.75;;;18.23;45.96
32083;BME280;18597;48.328;7.932;2023-04-08T11:01:44;100037.81;;;18.43;45.46
32083;BME280;18597;48.328;7.932;2023-04-08T11:04:14;100030.84;;;18.57;44.71
32083;BME280;18597;48.328;7.932;2023-04-08T11:06:42;100030.69;;;18.58;45.10
32083;BME280;18597;48.328;7.932;2023-04-08T11:09:09;100033.78;;;18.39;45.05
32083;BME280;18597;48.328;7.932;2023-04-08T11:11:35;100031.78;;;18.00;46.23
32083;BME280;18597;48.328;7.932;2023-04-08T11:14:01;100033.16;;;17.30;49.16
32083;BME280;18597;48.328;7.932;2023-04-08T11:16:28;100033.91;;;16.37;52.22
32083;BME280;18597;48.328;7.932;2023-04-08T11:18:54;100026.09;;;15.65;55.35
32083;BME280;18597;48.328;7.932;2023-04-08T11:21:24;100031.09;;;15.14;58.28
32083;BME280;18597;48.328;7.932;2023-04-08T11:23:54;100033.78;;;14.87;59.98
32083;BME280;18597;48.328;7.932;2023-04-08T11:26:20;100037.78;;;14.73;59.45
32083;BME280;18597;48.328;7.932;2023-04-08T11:28:47;100034.72;;;14.58;59.71
32083;BME280;18597;48.328;7.932;2023-04-08T11:31:16;100041.53;;;14.62;59.66
32083;BME280;18597;48.328;7.932;2023-04-08T11:33:47;100035.81;;;15.03;57.64
32083;BME280;18597;48.328;7.932;2023-04-08T11:36:15;100032.88;;;15.41;55.75
32083;BME280;18597;48.328;7.932;2023-04-08T11:38:42;100037.78;;;15.91;54.26
32083;BME280;18597;48.328;7.932;2023-04-08T11:41:09;100034.91;;;16.36;51.62
32083;BME280;18597;48.328;7.932;2023-04-08T11:43:36;100036.91;;;16.86;50.57
32083;BME280;18597;48.328;7.932;2023-04-08T11:46:10;100034.59;;;17.00;49.74
32083;BME280;18597;48.328;7.932;2023-04-08T11:48:37;100034.28;;;17.03;49.07
32083;BME280;18597;48.328;7.932;2023-04-08T11:51:06;100022.88;;;17.17;48.62
32083;BME280;18597;48.328;7.932;2023-04-08T11:53:37;100012.34;;;17.72;47.40
32083;BME280;18597;48.328;7.932;2023-04-08T11:56:16;100017.91;;;18.28;45.97
32083;BME280;18597;48.328;7.932;2023-04-08T11:58:42;100018.16;;;18.57;45.28
32083;BME280;18597;48.328;7.932;2023-04-08T12:01:08;100016.31;;;18.66;44.48
32083;BME280;18597;48.328;7.932;2023-04-08T12:03:34;100015.81;;;18.71;44.27
32083;BME280;18597;48.328;7.932;2023-04-08T12:05:59;100011.09;;;18.48;44.19
32083;BME280;18597;48.328;7.932;2023-04-08T12:08:25;100018.94;;;18.19;45.11
32083;BME280;18597;48.328;7.932;2023-04-08T12:10:51;100012.50;;;17.63;45.90
32083;BME280;18597;48.328;7.932;2023-04-08T12:13:17;100013.53;;;17.03;47.17
32083;BME280;18597;48.328;7.932;2023-04-08T12:15:43;100021.69;;;16.51;47.96
32083;BME280;18597;48.328;7.932;2023-04-08T12:18:09;100012.84;;;16.15;49.77
32083;BME280;18597;48.328;7.932;2023-04-08T12:20:35;100014.19;;;15.93;49.92
32083;BME280;18597;48.328;7.932;2023-04-08T12:23:01;100018.03;;;15.55;50.69
32083;BME280;18597;48.328;7.932;2023-04-08T12:25:27;100022.44;;;15.56;51.66
32083;BME280;18597;48.328;7.932;2023-04-08T12:27:53;100020.22;;;15.51;52.21
32083;BME280;18597;48.328;7.932;2023-04-08T12:30:20;100024.03;;;15.31;52.89
32083;BME280;18597;48.328;7.932;2023-04-08T12:32:45;100027.38;;;14.88;54.89
32083;BME280;18597;48.328;7.932;2023-04-08T12:35:12;100016.72;;;15.23;54.09
32083;BME280;18597;48.328;7.932;2023-04-08T12:37:38;100019.47;;;15.95;52.51
32083;BME280;18597;48.328;7.932;2023-04-08T12:40:04;100012.59;;;16.52;50.75
32083;BME280;18597;48.328;7.932;2023-04-08T12:42:30;100013.16;;;16.98;48.99
32083;BME280;18597;48.328;7.932;2023-04-08T12:44:56;100000.31;;;17.59;47.94
32083;BME280;18597;48.328;7.932;2023-04-08T12:47:22;100003.06;;;18.16;46.19
32083;BME280;18597;48.328;7.932;2023-04-08T12:49:48;100002.28;;;18.63;44.78
32083;BME280;18597;48.328;7.932;2023-04-08T12:52:14;99994.97;;;19.10;44.56
32083;BME280;18597;48.328;7.932;2023-04-08T12:54:40;99994.66;;;19.67;42.81
32083;BME280;18597;48.328;7.932;2023-04-08T12:57:06;99992.28;;;20.10;41.69
32083;BME280;18597;48.328;7.932;2023-04-08T12:59:31;99987.38;;;20.06;40.48
32083;BME280;18597;48.328;7.932;2023-04-08T13:01:58;99992.97;;;19.89;40.18
32083;BME280;18597;48.328;7.932;2023-04-08T13:04:24;99981.84;;;19.30;41.53
32083;BME280;18597;48.328;7.932;2023-04-08T13:06:50;99980.59;;;19.10;41.90
32083;BME280;18597;48.328;7.932;2023-04-08T13:09:16;99977.97;;;18.94;42.39
32083;BME280;18597;48.328;7.932;2023-04-08T13:11:43;99979.00;;;18.45;42.43